Flight Track Log - Related Links

Times and Time Zones

All times are in EDT time to prevent confusion due to time zone crossing. See the UAL4596 flight status page for this flight to view local times or setup timezone preferences in your user account.

Time Position Orientation Groundspeed Altitude Reporting Facility
EDT Latitude Longitude Course Direction KTS MPH feet Rate Location/Type
Sun 01:07:19 PM 29.9639 -95.3433 190° South 149 171 900  Level Houston Center
Sun 01:08:14 PM 29.9214 -95.3628 202° Southwest 211 243 2,700 1,982 Climbing Houston Center
Sun 01:09:08 PM 29.8808 -95.3983 217° Southwest 225 259 4,500 2,224 Climbing Houston Center
Sun 01:10:00 PM 29.6027 -95.4087 191° South  Level FlightAware Approximate
Sun 01:10:10 PM 29.8242 -95.4411 213° Southwest 239 275 7,000  Level Houston Center
Sun 01:11:00 PM 29.5076 -95.4285 190° South  Level FlightAware Approximate
Sun 01:11:12 PM 29.7619 -95.4858 212° Southwest 258 297 9,200  Level Houston Center
Sun 01:12:00 PM 29.4125 -95.4475 190° South  Level FlightAware Approximate
Sun 01:12:14 PM 29.6761 -95.5281 203° Southwest 292 336 11,200  Level Houston Center
Sun 01:13:16 PM 29.5850 -95.5319 182° South 330 380 12,500 1,344 Climbing Houston Center
Sun 01:14:19 PM 29.4889 -95.5364 182° South 347 399 14,000 1,488 Climbing Houston Center
Sun 01:15:21 PM 29.3889 -95.5425 183° South 360 414 15,600 1,452 Climbing Houston Center
Sun 01:16:23 PM 29.3058 -95.6017 212° Southwest 353 406 17,000 1,355 Climbing Houston Center
Sun 01:17:25 PM 29.2103 -95.6861 218° Southwest 361 415 18,400 1,306 Climbing Houston Center
Sun 01:18:27 PM 29.1281 -95.7569 217° Southwest 368 423 19,700 1,210 Climbing Houston Center
Sun 01:19:29 PM 29.0453 -95.8303 218° Southwest 374 430 20,900 1,210 Climbing Houston Center
Sun 01:20:31 PM 28.9597 -95.9036 217° Southwest 383 441 22,200 1,258 Climbing Houston Center
Sun 01:21:33 PM 28.8675 -95.9844 218° Southwest 387 445 23,500 1,258 Climbing Houston Center
Sun 01:22:35 PM 28.7811 -96.0586 217° Southwest 388 447 24,800 1,200 Climbing Houston Center
Sun 01:23:38 PM 28.6936 -96.1350 217° Southwest 392 451 26,000 1,200 Climbing Houston Center
Sun 01:24:40 PM 28.6069 -96.2083 217° Southwest 389 448 27,300 968 Climbing Houston Center
Sun 01:25:42 PM 28.5036 -96.2983 217° Southwest 389 448 28,000 339 Climbing Houston Center
Sun 01:26:44 PM 28.4122 -96.3772 217° Southwest 403 464 28,000  Level Houston Center
Sun 01:27:46 PM 28.3175 -96.4575 217° Southwest 417 480 28,000  Level Houston Center
Sun 01:28:48 PM 28.2217 -96.5367 216° Southwest 425 489 28,000  Level Houston Center
Sun 01:29:50 PM 28.1267 -96.6194 218° Southwest 428 493 28,000  Level Houston Center
Sun 01:30:52 PM 28.0300 -96.7003 216° Southwest 430 495 28,000  Level Houston Center
Sun 01:31:54 PM 27.9153 -96.7969 217° Southwest 428 493 28,000  Level Houston Center
Sun 01:32:56 PM 27.8192 -96.8786 217° Southwest 431 496 28,000  Level Houston Center
Sun 01:33:59 PM 27.7233 -96.9583 216° Southwest 428 493 28,000  Level Houston Center
Sun 01:35:01 PM 27.6275 -97.0406 217° Southwest 430 495 28,000  Level Houston Center
Sun 01:36:03 PM 27.5281 -97.1239 217° Southwest 430 495 28,000  Level Houston Center
Sun 01:37:05 PM 27.4317 -97.2039 216° Southwest 429 494 28,000  Level Houston Center
Sun 01:38:07 PM 27.3353 -97.2850 217° Southwest 430 495 28,000 -532 Level Houston Center
Sun 01:39:09 PM 27.2197 -97.3814 217° Southwest 430 495 26,900 -1,200 Descending Houston Center
Sun 01:40:12 PM 27.1183 -97.4647 216° Southwest 428 493 25,500 -1,296 Descending Houston Center
Sun 01:41:14 PM 27.0225 -97.5422 216° Southwest 435 501 24,200 -1,548 Descending Houston Center
Sun 01:42:16 PM 26.9194 -97.6294 217° Southwest 433 498 22,300 -1,887 Descending Houston Center
Sun 01:43:18 PM 26.8264 -97.7072 217° Southwest 419 482 20,300 -1,984 Descending Houston Center
Sun 01:44:23 PM 26.7272 -97.7900 217° Southwest 409 471 18,100 -2,032 Descending Houston Center
Sun 01:45:22 PM 26.6436 -97.8583 216° Southwest 387 445 16,100 -2,033 Descending Houston Center
Sun 01:46:24 PM 26.5608 -97.9244 216° Southwest 367 422 14,000 -2,032 Descending Houston Center
Sun 01:47:26 PM 26.4742 -97.9953 216° Southwest 363 418 11,900 -1,887 Descending Houston Center
Sun 01:48:28 PM 26.3939 -98.0608 216° Southwest 360 414 10,100 -1,296 Descending Houston Center
Sun 01:49:31 PM 26.3231 -98.1189 216° Southwest 292 336 9,200 -1,536 Descending Houston Center
Sun 01:50:33 PM 26.2961 -98.1850 246° West 271 312 6,900 -2,274 Descending Houston Center
Sun 01:51:35 PM 26.3350 -98.2636 299° West 267 307 4,500 -2,035 Descending Houston Center
Sun 01:52:28 PM 26.3628 -98.3217 298° West 259 298 3,000 -1,274 Descending Houston Center
Sun 01:53:28 PM 26.3206 -98.3597 219° Southwest 213 245 2,100 -496 Descending Houston Center
Sun 01:54:29 PM 26.2731 -98.3283 149° Southeast 195 224 2,000 -281 Descending Houston Center
Sun 01:55:36 PM 26.2314 -98.2919 142° Southeast 164 189 1,500 -569 Descending Houston Center
Sun 01:56:46 PM 26.2003 -98.2642 141° Southeast 125 144 700 -364 Descending Houston Center
Sun 01:57:48 PM 26.1781 -98.2447 142° Southeast 124 143 700  Level Houston Center

Login

Don't have an account? Register now (free) for customized features, flight alerts, and more!